| Date | Time | Temp. (oF) | Dew Point (oF) | Rel. Hum. (%) | Press. (in.) | Wind Dir. | Wind Speed (mph) | Hourly Rainfall (in.) |
|
|---|---|---|---|---|---|---|---|---|---|
| 1 | 10/30 | 00:00 | 34 | 33 | 100 | 30.05 | NNE | 5 | 0.00 |
| 2 | 10/29 | 23:00 | 34 | 33 | 100 | 30.06 | NNE | 7 | 0.00 |
| 3 | 10/29 | 22:00 | 35 | 35 | 100 | 30.07 | NE | 7 | 0.02 |
| 4 | 10/29 | 21:00 | 35 | 35 | 100 | 30.08 | N | 4 | 0.01 |
| 5 | 10/29 | 20:00 | 36 | 36 | 100 | 30.07 | NNE | 3 | 0.02 |
| 6 | 10/29 | 19:00 | 36 | 36 | 100 | 30.07 | NNE | 5 | 0.09 |
| 7 | 10/29 | 18:00 | 36 | 36 | 100 | 30.08 | ENE | 7 | 0.10 |
| 8 | 10/29 | 17:00 | 36 | 35 | 99 | 30.06 | NE | 4 | 0.06 |
| 9 | 10/29 | 16:00 | 37 | 36 | 97 | 30.06 | NE | 6 | 0.04 |
| 10 | 10/29 | 15:00 | 38 | 36 | 94 | 30.13 | ENE | 2 | 0.02 |
| 11 | 10/29 | 14:00 | 39 | 36 | 91 | 30.12 | ENE | 2 | 0.09 |
| 12 | 10/29 | 13:00 | 41 | 35 | 80 | 30.14 | ENE | 0 | 0.02 |
| 13 | 10/29 | 12:00 | 42 | 31 | 65 | 30.16 | ESE | 1 | 0.00 |
| 14 | 10/29 | 11:00 | 42 | 32 | 68 | 30.15 | NE | 7 | 0.00 |
| 15 | 10/29 | 10:00 | 41 | 34 | 76 | 30.17 | NE | 3 | 0.00 |
| 16 | 10/29 | 09:00 | 40 | 34 | 82 | 30.19 | NE | 3 | 0.00 |
| 17 | miss | miss | miss | miss | miss | miss | miss | miss | |
| 18 | 10/29 | 09:32 | 38 | 35 | 92 | 30.19 | NE | 8 | 0.00 |
| 19 | miss | miss | miss | miss | miss | miss | miss | miss | |
| 20 | 10/29 | 09:30 | 38 | 36 | 93 | 30.19 | NE | 7 | 0.00 |
| 21 | miss | miss | miss | miss | miss | miss | miss | miss | |
| 22 | 10/29 | 09:28 | 38 | 36 | 95 | 30.19 | NE | 9 | 0.00 |
| 23 | miss | miss | miss | miss | miss | miss | miss | miss | |
| 24 | 10/29 | 09:26 | 37 | 35 | 96 | 30.20 | ENE | 3 | 0.00 |
| 25 | miss | miss | miss | miss | miss | miss | miss | miss | |
| 26 | 10/29 | 09:25 | 37 | 36 | 97 | 30.20 | N | 5 | 0.00 |
| 27 | miss | miss | miss | miss | miss | miss | miss | miss | |
| 28 | 10/29 | 09:25 | 37 | 36 | 97 | 30.20 | N | 5 | 0.00 |
| 29 | miss | miss | miss | miss | miss | miss | miss | miss | |
| 30 | 10/29 | 09:25 | 37 | 36 | 97 | 30.20 | N | 5 | 0.00 |
| 31 | miss | miss | miss | miss | miss | miss | miss | miss | |
| 32 | 10/29 | 09:25 | 37 | 36 | 97 | 30.20 | N | 5 | 0.00 |
| 33 | miss | miss | miss | miss | miss | miss | miss | miss | |
| 34 | 10/29 | 09:25 | 37 | 36 | 97 | 30.20 | N | 5 | 0.00 |
| 35 | miss | miss | miss | miss | miss | miss | miss | miss | |
| 36 | 10/29 | 09:25 | 37 | 36 | 97 | 30.20 | N | 5 | 0.00 |
| 37 | miss | miss | miss | miss | miss | miss | miss | miss | |
| 38 | 10/29 | 09:25 | 37 | 36 | 97 | 30.20 | N | 5 | 0.00 |
| 39 | miss | miss | miss | miss | miss | miss | miss | miss | |
| 40 | 10/29 | 09:00 | 34 | 33 | 100 | 30.22 | NE | 2 | 0.00 |
| 41 | 10/29 | 08:00 | 32 | 31 | 99 | 30.19 | NNW | 1 | 0.00 |
| 42 | 10/29 | 07:00 | 32 | 31 | 97 | 30.20 | WNW | 0 | 0.00 |
| 43 | 10/29 | 06:00 | 33 | 31 | 96 | 30.20 | W | 0 | 0.00 |
| 44 | 10/29 | 05:00 | 34 | 32 | 95 | 30.19 | NNW | 1 | 0.00 |
| 45 | 10/29 | 04:00 | 34 | 33 | 97 | 30.19 | NNW | 3 | 0.00 |
| 46 | 10/29 | 03:00 | 34 | 33 | 97 | 30.20 | N | 0 | 0.00 |
| 47 | 10/29 | 02:00 | 35 | 33 | 96 | 30.18 | N | 0 | 0.00 |
| 48 | 10/29 | 01:00 | 36 | 34 | 96 | 30.16 | N | 0 | 0.00 |
| 49 | 10/29 | 00:00 | 37 | 35 | 96 | 30.16 | NE | 0 | -0.47 |
| 50 | 10/28 | 23:00 | 38 | 36 | 96 | 30.15 | NNE | 1 | 0.00 |
| 51 | 10/28 | 22:00 | 39 | 36 | 92 | 30.14 | NW | 0 | 0.00 |
| 52 | 10/28 | 21:00 | 41 | 37 | 86 | 30.13 | NW | 0 | 0.00 |
| 53 | 10/28 | 20:00 | 44 | 37 | 78 | 30.12 | NW | 0 | 0.00 |
| 54 | 10/28 | 19:00 | 48 | 38 | 69 | 30.11 | NW | 0 | 0.00 |
| 55 | 10/28 | 18:00 | 50 | 37 | 63 | 30.10 | NW | 2 | 0.00 |
| 56 | 10/28 | 17:00 | 51 | 37 | 61 | 30.09 | N | 6 | 0.00 |
| 57 | 10/28 | 16:00 | 51 | 37 | 61 | 30.09 | NNW | 2 | 0.00 |
| 58 | 10/28 | 15:00 | 50 | 37 | 61 | 30.11 | NW | 1 | 0.00 |
| 59 | 10/28 | 14:00 | 50 | 37 | 61 | 30.11 | NNW | 3 | 0.00 |
| 60 | 10/28 | 13:00 | 50 | 37 | 61 | 30.12 | NE | 2 | 0.00 |
| 61 | 10/28 | 12:00 | 49 | 37 | 64 | 30.14 | NNW | 4 | 0.00 |
| 62 | 10/28 | 11:00 | 48 | 38 | 69 | 30.16 | N | 7 | 0.00 |
| 63 | 10/28 | 10:00 | 47 | 38 | 72 | 30.18 | NNW | 4 | 0.00 |
| 64 | 10/28 | 09:00 | 46 | 40 | 81 | 30.17 | NW | 3 | 0.00 |
| 65 | 10/28 | 08:00 | 45 | 41 | 86 | 30.18 | NNW | 1 | 0.00 |
| 66 | 10/28 | 07:00 | 45 | 41 | 87 | 30.17 | SSW | 1 | 0.00 |
| 67 | 10/28 | 06:00 | 45 | 39 | 80 | 30.16 | W | 1 | 0.00 |
| 68 | 10/28 | 05:00 | 46 | 39 | 78 | 30.15 | SSW | 1 | 0.00 |
| 69 | 10/28 | 04:00 | 46 | 37 | 71 | 30.16 | WNW | 1 | 0.00 |
| 70 | 10/28 | 03:00 | 47 | 36 | 68 | 30.16 | NW | 3 | 0.00 |
| 71 | 10/28 | 02:00 | 47 | 36 | 68 | 30.17 | N | 1 | 0.00 |
| 72 | 10/28 | 01:00 | 47 | 36 | 68 | 30.16 | NNW | 2 | 0.00 |